Etusivu
METAR-TAF:

METAR-TAF

Lentoasemat :

Mullan Pass Vor, Idaho, Yhdysvallat

Leveyspiiri: 47-27-15N, Pituuspiiri: 115-40-11W, korkeus merenpinnasta: 1829 m

Tämänhetkinen sää

Tämä raportti tehtiin 48 minuuttia sitten, kello 10.53 UTC
tyyntä
Lämpötila 16°C
Kosteus 34%
Ilmanpaine 1021 hPa
Näkyvyys: 16.1 km
Hajanaisia pilviä 6000 ft:n korkeudessa

METAR: KMLP 291053Z AUTO 00000KT 10SM SCT060 16/00 A3015 RMK AO2 SLP111 T01560000 $

Aika: 04:41 (11:41 UTC)


TAF: puuttuu

Säähavainnot ja -ennusteet yli 4000 lentoasemalta (METAR- ja TAF-raportit).

Käytössä olevat sääasemat on merkitty karttaan keltaisilla ja punaisilla pisteillä.

Aseta hiiri pisteen päälle nähdäksesi sääaseman nimen.

Klikkaa sitten nähdäksesi säähavainnot ja -ennusteet.

Kartan vaihtaminen: klikkaa mustalla rastilla varustettuja vihreitä pisteitä, niin voit zoomata sisään; viivalla varustettua vihreää pistettä, niin voit zoomata ulos tai vihreitä nuolia, niin pääset viereisille kartoille.


METAR-TAF: